Time;durP1;ratioP1;P1;durP2;ratioP2;P2;SDS_P1;SDS_P2;PMS_P1;PMS_P2;Temp;Humidity;BMP_temperature;BMP_pressure;BME280_temperature;BME280_humidity;BME280_pressure;Samples;Min_cycle;Max_cycle;Signal;HPM_P1;HPM_P2
2021/10/31 00:01:42;;;;;;;36.25;22.23;;;;;;;8.08;91.84;100922.94;5022911;28;20100;-69
2021/10/31 00:04:07;;;;;;;29.92;20.88;;;;;;;8.13;91.31;100931.50;5027519;28;20529;-69
2021/10/31 00:06:33;;;;;;;35.08;22.80;;;;;;;8.19;91.53;100941.78;5019150;28;20052;-68
2021/10/31 00:08:58;;;;;;;35.58;22.83;;;;;;;8.20;91.42;100948.81;5015845;28;20499;-68
2021/10/31 00:11:24;;;;;;;35.25;22.05;;;;;;;8.22;91.32;100953.13;5020029;28;20029;-68
2021/10/31 00:13:49;;;;;;;31.73;21.42;;;;;;;8.24;91.23;100955.69;5023992;28;20025;-68
2021/10/31 00:16:15;;;;;;;35.65;21.90;;;;;;;8.20;90.52;100943.50;5024120;28;20391;-67
2021/10/31 00:18:41;;;;;;;33.05;21.70;;;;;;;8.19;90.66;100947.97;5017311;28;20029;-68
2021/10/31 00:21:07;;;;;;;35.10;22.40;;;;;;;8.12;90.68;100940.47;5021444;28;20045;-68
2021/10/31 00:23:33;;;;;;;38.67;23.63;;;;;;;8.14;90.65;100947.44;5019521;28;20506;-68
2021/10/31 00:25:58;;;;;;;33.88;22.02;;;;;;;8.18;90.28;100953.41;5022186;28;20032;-67
2021/10/31 00:28:25;;;;;;;34.80;21.00;;;;;;;8.18;90.12;100969.44;5016802;28;20465;-67
2021/10/31 00:30:51;;;;;;;33.35;21.17;;;;;;;8.16;90.32;100966.03;5019106;28;20027;-68
2021/10/31 00:33:16;;;;;;;33.78;22.40;;;;;;;8.09;90.04;100964.75;5021924;28;20111;-68
2021/10/31 00:35:42;;;;;;;32.85;22.08;;;;;;;8.06;89.54;100956.94;5022369;28;20065;-68
2021/10/31 00:38:07;;;;;;;30.55;20.15;;;;;;;8.03;90.13;100957.97;5020796;28;20397;-68
2021/10/31 00:40:33;;;;;;;34.72;22.15;;;;;;;8.03;90.26;100951.78;5024840;28;20504;-68
2021/10/31 00:42:59;;;;;;;31.55;20.92;;;;;;;7.98;90.54;100948.56;5016333;28;20069;-67
2021/10/31 00:45:25;;;;;;;35.78;22.40;;;;;;;7.88;90.17;100936.78;5018230;28;20029;-67
2021/10/31 00:47:51;;;;;;;33.58;22.02;;;;;;;7.93;90.83;100959.53;5019552;28;20039;-68
2021/10/31 00:50:18;;;;;;;33.35;21.73;;;;;;;7.90;90.63;100956.25;5013689;28;20463;-67
2021/10/31 00:52:44;;;;;;;35.13;22.23;;;;;;;7.82;90.58;100953.22;5019837;28;20030;-68
2021/10/31 00:55:09;;;;;;;36.10;22.88;;;;;;;7.77;90.55;100964.19;5023664;28;20158;-68
2021/10/31 00:57:36;;;;;;;33.30;21.77;;;;;;;7.72;90.19;100963.66;5019681;28;20032;-68
2021/10/31 01:00:04;;;;;;;34.65;22.55;;;;;;;7.60;89.89;100948.44;5017204;28;20031;-68
2021/10/31 01:02:30;;;;;;;35.90;20.90;;;;;;;7.61;90.09;100957.31;5016417;28;20160;-68
2021/10/31 01:04:59;;;;;;;30.58;21.08;;;;;;;7.54;90.46;100956.84;5013854;28;20139;-68
2021/10/31 01:07:53;;;;;;;35.58;21.67;;;;;;;7.49;90.18;100950.09;5017386;28;20105;-68
2021/10/31 01:10:31;;;;;;;33.85;22.13;;;;;;;7.44;89.82;100953.06;5017656;28;20119;-68
2021/10/31 01:13:07;;;;;;;33.90;21.98;;;;;;;7.39;90.73;100948.97;5020265;28;20037;-68
2021/10/31 01:15:57;;;;;;;34.15;21.58;;;;;;;7.32;90.63;100950.34;5020515;28;20103;-68
2021/10/31 01:18:39;;;;;;;33.80;20.52;;;;;;;7.27;90.90;100944.44;5016088;28;20041;-68
2021/10/31 01:21:29;;;;;;;32.60;21.08;;;;;;;7.23;91.03;100938.44;5017603;28;20114;-68
2021/10/31 01:24:38;;;;;;;30.55;19.25;;;;;;;7.16;90.28;100941.59;5021445;28;20044;-68
2021/10/31 01:27:11;;;;;;;36.67;22.08;;;;;;;7.09;90.01;100934.94;5019461;28;20472;-68
2021/10/31 01:29:52;;;;;;;36.50;22.15;;;;;;;7.01;89.65;100938.09;5026690;28;20430;-68
2021/10/31 01:32:20;;;;;;;37.38;21.30;;;;;;;6.92;89.07;100934.22;5020205;28;20167;-68
2021/10/31 01:34:48;;;;;;;36.83;21.80;;;;;;;6.88;89.29;100934.50;5019205;28;20033;-68
2021/10/31 01:37:20;;;;;;;36.33;21.35;;;;;;;6.85;90.15;100938.22;5022010;28;20025;-68
2021/10/31 01:40:17;;;;;;;32.97;21.25;;;;;;;6.80;91.65;100934.09;5023392;28;20153;-68
2021/10/31 01:42:56;;;;;;;33.95;21.85;;;;;;;6.80;92.64;100934.09;5022053;28;20542;-68
2021/10/31 01:45:52;;;;;;;35.72;22.52;;;;;;;6.80;93.75;100940.31;5019243;28;20501;-68
2021/10/31 01:48:57;;;;;;;32.00;21.08;;;;;;;6.82;94.71;100945.53;5017589;28;20061;-68
2021/10/31 01:51:35;;;;;;;35.63;21.83;;;;;;;6.80;94.65;100940.31;5011596;28;20472;-68
2021/10/31 01:54:03;;;;;;;36.20;21.88;;;;;;;6.79;95.16;100943.06;5017697;28;20025;-68
2021/10/31 01:56:33;;;;;;;35.90;23.35;;;;;;;6.77;95.03;100945.81;5025676;28;20021;-68
2021/10/31 01:59:06;;;;;;;33.72;20.73;;;;;;;6.76;94.56;100937.91;5016982;28;20025;-68
2021/10/31 02:01:35;;;;;;;34.10;22.15;;;;;;;6.73;94.96;100946.97;5018117;28;20053;-68
2021/10/31 02:04:06;;;;;;;39.58;22.42;;;;;;;6.73;94.57;100938.97;5016958;28;20067;-68
2021/10/31 02:06:36;;;;;;;33.85;21.90;;;;;;;6.74;94.38;100934.50;5014665;28;20025;-68
2021/10/31 02:09:02;;;;;;;35.30;24.08;;;;;;;6.75;95.40;100941.53;5015737;28;20147;-68
2021/10/31 02:11:29;;;;;;;36.03;22.35;;;;;;;6.72;96.17;100921.28;5021227;28;20051;-68
2021/10/31 02:13:57;;;;;;;36.70;22.77;;;;;;;6.81;96.79;100936.66;5019440;28;20079;-68
2021/10/31 02:16:22;;;;;;;34.90;22.15;;;;;;;6.79;97.38;100932.41;5026710;28;20044;-68
2021/10/31 02:18:50;;;;;;;35.42;22.45;;;;;;;6.79;97.80;100930.59;5018368;28;20030;-67
2021/10/31 02:21:24;;;;;;;36.88;23.17;;;;;;;6.84;97.73;100933.81;5028155;28;20049;-68
2021/10/31 02:23:51;;;;;;;36.40;22.40;;;;;;;6.81;98.13;100915.34;5019302;28;20033;-68
2021/10/31 02:26:17;;;;;;;35.05;23.48;;;;;;;6.88;97.35;100940.69;5019391;28;20036;-68
2021/10/31 02:28:53;;;;;;;37.28;22.52;;;;;;;6.86;97.67;100926.59;5022025;28;20021;-68
2021/10/31 02:31:19;;;;;;;35.25;22.88;;;;;;;6.88;98.05;100921.16;5023594;28;20049;-68
2021/10/31 02:33:44;;;;;;;35.20;22.45;;;;;;;6.91;98.46;100919.13;5021344;28;20057;-68
2021/10/31 02:36:09;;;;;;;35.08;22.50;;;;;;;6.95;99.35;100912.69;5021284;28;20114;-68
2021/10/31 02:38:35;;;;;;;33.55;21.83;;;;;;;7.07;100.00;100920.84;5024776;28;20037;-68
2021/10/31 02:41:00;;;;;;;35.38;23.40;;;;;;;7.14;100.00;100923.03;5025230;28;20037;-68
2021/10/31 02:43:26;;;;;;;41.88;23.42;;;;;;;7.11;100.00;100907.22;5025913;28;20902;-68
2021/10/31 02:45:51;;;;;;;33.05;22.02;;;;;;;7.28;100.00;100914.97;5022756;28;20040;-68
2021/10/31 02:48:17;;;;;;;34.25;22.67;;;;;;;7.35;100.00;100923.47;5023865;28;20036;-68
2021/10/31 02:50:45;;;;;;;39.63;24.20;;;;;;;7.38;100.00;100928.59;5023646;28;20037;-68
2021/10/31 02:53:32;;;;;;;38.15;23.92;;;;;;;7.42;100.00;100919.44;5023673;28;20549;-68
2021/10/31 02:56:31;;;;;;;38.25;22.63;;;;;;;7.46;100.00;100929.81;5025013;28;20029;-68
2021/10/31 02:59:04;;;;;;;38.70;21.95;;;;;;;7.47;100.00;100930.63;5024136;28;20112;-68
2021/10/31 03:01:31;;;;;;;36.25;23.95;;;;;;;7.43;99.71;100922.00;5023589;28;20033;-68
2021/10/31 03:03:58;;;;;;;35.53;24.05;;;;;;;7.42;98.87;100914.97;5026929;28;20464;-68
2021/10/31 03:06:26;;;;;;;38.58;24.58;;;;;;;7.44;98.49;100917.50;5021714;28;20542;-68
2021/10/31 03:08:52;;;;;;;37.08;22.75;;;;;;;7.43;99.14;100914.00;5021692;28;20038;-68
2021/10/31 03:11:20;;;;;;;37.17;23.20;;;;;;;7.51;99.39;100916.16;5025052;28;20744;-68
2021/10/31 03:13:45;;;;;;;37.22;23.73;;;;;;;7.51;100.00;100911.66;5024248;28;20156;-69
2021/10/31 03:16:11;;;;;;;36.45;22.73;;;;;;;7.56;100.00;100911.38;5024854;28;20587;-68
2021/10/31 03:18:37;;;;;;;39.92;25.45;;;;;;;7.57;100.00;100910.41;5025151;28;20029;-68
2021/10/31 03:21:03;;;;;;;37.15;25.20;;;;;;;7.64;100.00;100925.91;5021180;28;20054;-68
2021/10/31 03:23:29;;;;;;;35.95;23.00;;;;;;;7.69;100.00;100925.59;5025380;28;20107;-69
2021/10/31 03:25:56;;;;;;;35.10;23.25;;;;;;;7.73;100.00;100927.97;5028882;28;20029;-64
2021/10/31 03:28:22;;;;;;;36.40;23.42;;;;;;;7.71;100.00;100923.72;5024874;28;20123;-64
2021/10/31 03:30:47;;;;;;;35.08;22.98;;;;;;;7.72;100.00;100915.59;5025730;28;20076;-64
2021/10/31 03:33:13;;;;;;;37.85;24.02;;;;;;;7.74;100.00;100918.16;5022781;28;20044;-64
2021/10/31 03:35:39;;;;;;;41.65;23.90;;;;;;;7.75;100.00;100915.41;5020177;28;20431;-64
2021/10/31 03:38:04;;;;;;;38.83;24.90;;;;;;;7.71;100.00;100900.50;5023583;28;20056;-64
2021/10/31 03:40:30;;;;;;;35.75;23.75;;;;;;;7.80;100.00;100909.75;5022861;28;20117;-64
2021/10/31 03:42:56;;;;;;;37.25;24.20;;;;;;;7.82;100.00;100913.16;5022654;28;20207;-64
2021/10/31 03:45:22;;;;;;;36.13;24.75;;;;;;;7.85;100.00;100916.50;5023416;28;20029;-64
2021/10/31 03:47:48;;;;;;;39.35;25.30;;;;;;;7.87;100.00;100914.56;5018257;28;20034;-64
2021/10/31 03:50:15;;;;;;;36.65;24.27;;;;;;;7.88;99.99;100908.28;5017719;28;20084;-64
2021/10/31 03:52:42;;;;;;;36.03;24.17;;;;;;;7.90;100.00;100917.03;5024450;28;20044;-64
2021/10/31 03:55:08;;;;;;;37.13;25.00;;;;;;;7.93;100.00;100918.66;5019690;28;20091;-64
2021/10/31 03:57:35;;;;;;;37.03;24.50;;;;;;;7.87;99.74;100897.69;5019490;28;20029;-64
2021/10/31 04:00:05;;;;;;;36.88;25.17;;;;;;;7.95;99.79;100909.56;5025258;28;20683;-64
2021/10/31 04:02:31;;;;;;;38.80;25.92;;;;;;;7.98;99.37;100916.50;5025432;28;20037;-64
2021/10/31 04:04:56;;;;;;;38.17;24.52;;;;;;;7.97;98.81;100906.78;5020032;28;20043;-64
2021/10/31 04:07:22;;;;;;;34.63;23.58;;;;;;;7.92;99.03;100907.09;5025881;28;20057;-64
2021/10/31 04:09:47;;;;;;;40.80;24.52;;;;;;;7.98;98.92;100909.38;5028659;28;20036;-65
2021/10/31 04:12:13;;;;;;;37.97;24.02;;;;;;;7.97;98.99;100901.44;5020969;28;20033;-64
2021/10/31 04:14:38;;;;;;;39.90;25.13;;;;;;;7.98;99.08;100906.69;5021188;28;20040;-64
2021/10/31 04:17:04;;;;;;;40.50;25.35;;;;;;;7.99;99.25;100904.84;5024016;28;20079;-64
2021/10/31 04:19:29;;;;;;;38.70;26.30;;;;;;;8.00;99.07;100910.09;5016593;28;20042;-64
2021/10/31 04:21:55;;;;;;;37.90;24.83;;;;;;;8.02;99.01;100916.19;5020727;28;20030;-64
2021/10/31 04:24:21;;;;;;;38.92;25.17;;;;;;;8.04;98.81;100913.44;5021667;28;20013;-64
2021/10/31 04:26:50;;;;;;;38.33;24.70;;;;;;;8.04;98.52;100908.09;5021967;28;20750;-64
2021/10/31 04:29:15;;;;;;;37.20;24.55;;;;;;;8.05;98.54;100902.63;5015389;28;20117;-64
2021/10/31 04:31:41;;;;;;;35.25;24.83;;;;;;;8.07;98.50;100905.22;5020822;28;20105;-64
2021/10/31 04:34:06;;;;;;;42.20;25.20;;;;;;;8.05;98.44;100901.78;5021581;28;20049;-64
2021/10/31 04:36:31;;;;;;;43.33;26.13;;;;;;;8.07;97.80;100900.72;5022800;28;20033;-64
2021/10/31 04:38:57;;;;;;;37.90;23.20;;;;;;;8.07;97.60;100906.06;5019516;28;20022;-64
2021/10/31 04:41:24;;;;;;;36.40;25.63;;;;;;;7.99;97.62;100891.50;5022563;28;20072;-64
2021/10/31 04:43:50;;;;;;;40.65;26.23;;;;;;;8.07;97.54;100898.06;5017919;28;20116;-64
2021/10/31 04:46:15;;;;;;;37.88;26.17;;;;;;;8.04;97.93;100895.59;5019629;28;20067;-64
2021/10/31 04:48:41;;;;;;;37.92;25.80;;;;;;;8.03;97.93;100899.22;5024846;28;20036;-64
2021/10/31 04:51:06;;;;;;;39.63;26.17;;;;;;;8.02;97.67;100899.31;5021144;28;20022;-64
2021/10/31 04:53:32;;;;;;;38.97;25.52;;;;;;;7.89;97.61;100879.72;5021651;28;20124;-64
2021/10/31 04:55:58;;;;;;;38.15;24.67;;;;;;;7.89;97.37;100880.59;5016717;28;20034;-64
2021/10/31 04:58:24;;;;;;;42.00;25.67;;;;;;;7.90;96.98;100892.16;5016219;28;20048;-64
2021/10/31 05:00:50;;;;;;;36.55;25.33;;;;;;;7.92;97.66;100893.75;5014583;28;20395;-64
2021/10/31 05:03:15;;;;;;;43.72;26.23;;;;;;;7.92;97.53;100893.75;5017624;28;20026;-64
2021/10/31 05:05:41;;;;;;;39.85;25.52;;;;;;;7.92;98.20;100890.22;5021089;28;20029;-64
2021/10/31 05:08:06;;;;;;;41.33;26.77;;;;;;;7.93;98.61;100900.78;5018287;28;20029;-64
2021/10/31 05:10:32;;;;;;;37.78;26.10;;;;;;;7.94;98.38;100897.19;5021578;28;20037;-63
2021/10/31 05:12:58;;;;;;;38.33;26.65;;;;;;;7.95;98.30;100906.03;5017776;28;20059;-63
2021/10/31 05:15:23;;;;;;;42.10;26.92;;;;;;;7.91;98.29;100901.88;5013579;28;20033;-64
2021/10/31 05:17:49;;;;;;;41.10;26.80;;;;;;;7.87;97.86;100893.19;5016291;28;20030;-63
2021/10/31 05:20:16;;;;;;;40.78;27.17;;;;;;;7.87;97.70;100897.69;5017244;28;20709;-64
2021/10/31 05:22:41;;;;;;;41.33;26.50;;;;;;;7.81;97.97;100890.97;5018332;28;20033;-64
2021/10/31 05:25:09;;;;;;;39.40;27.48;;;;;;;7.72;97.76;100882.69;5020743;28;20022;-64
2021/10/31 05:27:35;;;;;;;42.60;27.92;;;;;;;7.79;97.77;100895.53;5017465;28;20061;-65
2021/10/31 05:30:01;;;;;;;40.08;26.23;;;;;;;7.75;97.93;100902.03;5014263;28;20108;-64
2021/10/31 05:32:33;;;;;;;39.78;27.05;;;;;;;7.74;98.24;100902.97;5017844;28;20109;-64
2021/10/31 05:34:58;;;;;;;42.47;28.98;;;;;;;7.73;98.18;100911.09;5009811;28;20025;-64
2021/10/31 05:37:31;;;;;;;43.95;27.55;;;;;;;7.75;98.26;100919.88;5025233;28;21042;-66
2021/10/31 05:39:56;;;;;;;47.67;29.83;;;;;;;7.71;98.59;100910.34;5021891;28;20025;-64
2021/10/31 05:42:22;;;;;;;38.95;26.92;;;;;;;7.69;97.84;100918.47;5016361;28;20570;-64
2021/10/31 05:44:47;;;;;;;46.92;28.85;;;;;;;7.61;98.30;100907.44;5019940;28;20036;-64
2021/10/31 05:47:12;;;;;;;46.45;28.38;;;;;;;7.66;97.99;100917.81;5023805;28;20033;-64
2021/10/31 05:49:38;;;;;;;44.22;28.52;;;;;;;7.62;98.40;100924.31;5020898;28;20048;-64
2021/10/31 05:52:05;;;;;;;45.90;28.85;;;;;;;7.63;98.70;100926.00;5019248;28;20030;-64
2021/10/31 05:54:31;;;;;;;45.03;28.92;;;;;;;7.61;98.04;100918.09;5014718;28;20025;-64
2021/10/31 05:56:56;;;;;;;43.67;27.83;;;;;;;7.60;98.72;100916.41;5018164;28;20523;-64
2021/10/31 05:59:22;;;;;;;44.72;28.38;;;;;;;7.63;99.43;100926.88;5019013;28;20026;-65
2021/10/31 06:01:48;;;;;;;48.40;29.10;;;;;;;7.63;99.87;100923.34;5014268;28;20022;-64
2021/10/31 06:04:13;;;;;;;42.40;26.15;;;;;;;7.67;99.49;100930.22;5018979;28;20380;-65
2021/10/31 06:06:39;;;;;;;43.55;27.63;;;;;;;7.65;99.45;100924.13;5018908;28;20055;-64
2021/10/31 06:09:04;;;;;;;40.20;25.77;;;;;;;7.70;100.00;100933.53;5017929;28;20129;-64
2021/10/31 06:11:30;;;;;;;41.05;25.98;;;;;;;7.73;99.98;100937.78;5010906;28;20030;-64
2021/10/31 06:13:56;;;;;;;46.55;28.10;;;;;;;7.74;99.73;100936.84;5021586;28;20030;-65
2021/10/31 06:16:21;;;;;;;43.28;28.27;;;;;;;7.76;99.36;100935.78;5018665;28;20434;-64
2021/10/31 06:18:47;;;;;;;43.53;27.00;;;;;;;7.74;99.74;100921.66;5022832;28;20717;-65
2021/10/31 06:21:16;;;;;;;42.30;27.27;;;;;;;7.83;100.00;100934.41;5018291;28;20109;-65
2021/10/31 06:23:41;;;;;;;47.25;27.63;;;;;;;7.87;100.00;100940.41;5016991;28;20121;-65
2021/10/31 06:26:10;;;;;;;47.05;28.80;;;;;;;7.93;100.00;100946.19;5019980;28;20025;-65
2021/10/31 06:28:35;;;;;;;47.03;29.23;;;;;;;8.01;99.98;100949.22;5019256;28;20036;-65
2021/10/31 06:31:00;;;;;;;44.53;27.92;;;;;;;8.05;100.00;100952.53;5016767;28;20033;-65
2021/10/31 06:33:26;;;;;;;43.85;27.77;;;;;;;8.12;99.55;100948.47;5018139;28;20377;-65
2021/10/31 06:35:52;;;;;;;46.20;28.10;;;;;;;8.14;99.10;100942.09;5017319;28;20025;-65
2021/10/31 06:38:17;;;;;;;45.95;27.92;;;;;;;8.25;98.72;100944.03;5019440;28;20068;-64
2021/10/31 06:40:42;;;;;;;45.50;28.70;;;;;;;8.26;98.08;100943.94;5019325;28;20104;-64
2021/10/31 06:43:08;;;;;;;44.50;27.20;;;;;;;8.33;98.26;100950.59;5012317;28;20040;-65
2021/10/31 06:45:33;;;;;;;43.50;28.02;;;;;;;8.39;97.93;100954.66;5021951;28;20057;-65
2021/10/31 06:48:01;;;;;;;41.75;27.27;;;;;;;8.42;97.90;100946.44;5021932;28;20071;-64
2021/10/31 06:50:26;;;;;;;42.00;26.75;;;;;;;8.40;97.54;100943.00;5014038;28;20168;-64
2021/10/31 06:52:51;;;;;;;42.72;27.15;;;;;;;8.51;97.60;100954.66;5017413;28;20116;-65
2021/10/31 06:55:17;;;;;;;41.72;27.40;;;;;;;8.52;97.05;100956.38;5014102;28;20033;-64
2021/10/31 06:57:43;;;;;;;40.15;26.17;;;;;;;8.56;97.47;100952.53;5020258;28;20025;-65
2021/10/31 07:00:09;;;;;;;43.28;27.13;;;;;;;8.59;96.86;100941.63;5021832;28;20048;-64
2021/10/31 07:02:35;;;;;;;41.45;27.65;;;;;;;8.63;96.71;100943.13;5016612;28;20109;-64
2021/10/31 07:05:00;;;;;;;47.10;29.88;;;;;;;8.67;96.88;100949.97;5021992;28;20478;-64
2021/10/31 07:07:26;;;;;;;42.75;28.98;;;;;;;8.72;96.89;100946.97;5020414;28;21132;-63
2021/10/31 07:09:51;;;;;;;50.10;27.58;;;;;;;8.74;96.38;100939.72;5018209;28;20112;-63
2021/10/31 07:12:17;;;;;;;45.00;27.35;;;;;;;8.83;96.42;100950.59;5023554;28;20064;-64
2021/10/31 07:14:43;;;;;;;45.20;27.33;;;;;;;8.84;96.35;100943.44;5019534;28;20408;-64
2021/10/31 07:17:08;;;;;;;44.95;27.73;;;;;;;8.84;95.72;100938.94;5024213;28;20048;-64
2021/10/31 07:19:34;;;;;;;39.45;27.95;;;;;;;8.92;95.78;100943.75;5020473;28;20183;-64
2021/10/31 07:21:59;;;;;;;42.75;27.45;;;;;;;9.07;94.54;100956.88;5027393;28;20059;-64
2021/10/31 07:24:25;;;;;;;41.05;26.40;;;;;;;8.98;94.64;100933.47;5020593;28;20026;-64
2021/10/31 07:26:51;;;;;;;38.08;26.50;;;;;;;9.10;94.76;100951.31;5023254;28;20379;-64
2021/10/31 07:29:16;;;;;;;40.58;26.27;;;;;;;9.21;94.40;100963.91;5027598;28;20466;-64
2021/10/31 07:31:44;;;;;;;39.70;26.60;;;;;;;9.25;94.35;100957.38;5021139;28;20059;-63
2021/10/31 07:34:10;;;;;;;37.85;24.85;;;;;;;9.32;94.05;100951.47;5016538;28;20022;-64
2021/10/31 07:36:37;;;;;;;38.13;25.70;;;;;;;9.38;94.08;100950.16;5016399;28;20059;-64
2021/10/31 07:39:04;;;;;;;40.20;25.75;;;;;;;9.50;93.41;100954.63;5019348;28;20476;-64
2021/10/31 07:41:29;;;;;;;37.63;25.92;;;;;;;9.54;92.91;100950.75;5020453;28;20038;-63
2021/10/31 07:43:55;;;;;;;37.83;24.55;;;;;;;9.54;92.57;100936.53;5017458;28;20041;-64
2021/10/31 07:46:21;;;;;;;39.70;25.95;;;;;;;9.68;92.11;100961.31;5023068;28;20098;-64
2021/10/31 07:48:47;;;;;;;39.13;25.98;;;;;;;9.74;91.65;100950.13;5019837;28;20358;-64
2021/10/31 07:51:12;;;;;;;37.25;24.38;;;;;;;9.76;91.00;100948.19;5018487;28;20206;-64
2021/10/31 07:53:41;;;;;;;37.13;23.88;;;;;;;9.85;90.74;100957.38;5015534;28;20033;-64
2021/10/31 07:56:09;;;;;;;41.17;26.10;;;;;;;9.88;90.23;100939.25;5018556;28;20025;-64
2021/10/31 07:58:36;;;;;;;38.53;24.73;;;;;;;9.87;89.65;100931.34;5034915;28;20142;-64
2021/10/31 08:01:01;;;;;;;38.30;24.50;;;;;;;9.96;89.87;100944.88;5021904;28;20052;-63
2021/10/31 08:03:27;;;;;;;35.42;23.75;;;;;;;10.01;89.23;100945.41;5022036;28;20532;-64
2021/10/31 08:05:52;;;;;;;36.72;24.23;;;;;;;10.07;88.66;100946.78;5019325;28;20021;-64
2021/10/31 08:08:21;;;;;;;32.67;23.20;;;;;;;10.12;88.25;100942.78;5025848;28;20025;-63
2021/10/31 08:10:47;;;;;;;34.40;23.58;;;;;;;10.19;87.90;100940.50;5019891;28;20392;-64
2021/10/31 08:13:20;;;;;;;35.78;24.52;;;;;;;10.26;86.96;100937.25;5023469;28;20033;-64
2021/10/31 08:15:45;;;;;;;36.28;23.92;;;;;;;10.26;86.83;100937.25;5024812;28;20175;-63
2021/10/31 08:18:11;;;;;;;33.50;22.63;;;;;;;10.32;86.93;100939.44;5023418;28;20468;-63
2021/10/31 08:20:36;;;;;;;33.85;23.90;;;;;;;10.36;86.82;100938.25;5025815;28;20571;-64
2021/10/31 08:23:04;;;;;;;35.22;24.00;;;;;;;10.42;85.78;100928.88;5017929;28;20087;-63
2021/10/31 08:25:29;;;;;;;35.60;21.75;;;;;;;10.50;85.51;100929.09;5016175;28;20053;-64
2021/10/31 08:27:56;;;;;;;31.45;21.98;;;;;;;10.51;85.34;100920.94;5012421;28;20057;-63
2021/10/31 08:30:29;;;;;;;32.13;21.83;;;;;;;10.55;84.95;100921.56;5013145;28;20030;-64
2021/10/31 08:32:55;;;;;;;31.92;22.00;;;;;;;10.63;83.97;100920.00;5014325;28;20025;-63
2021/10/31 08:35:22;;;;;;;31.02;21.00;;;;;;;10.62;83.83;100912.06;5016661;28;20042;-63
2021/10/31 08:37:47;;;;;;;34.50;23.42;;;;;;;10.71;82.69;100917.53;5014441;28;20021;-64
2021/10/31 08:40:13;;;;;;;30.35;20.95;;;;;;;10.76;81.63;100917.19;5014899;28;20026;-63
2021/10/31 08:42:39;;;;;;;29.50;21.20;;;;;;;10.81;81.46;100915.84;5016800;28;20470;-64
2021/10/31 08:45:08;;;;;;;31.15;20.58;;;;;;;10.76;81.10;100903.78;5017194;28;20369;-64
2021/10/31 08:47:33;;;;;;;32.72;21.75;;;;;;;10.88;80.27;100914.41;5027859;28;20127;-63
2021/10/31 08:49:59;;;;;;;30.25;22.08;;;;;;;10.92;80.40;100923.91;5022916;28;20112;-64
2021/10/31 08:52:24;;;;;;;29.73;21.52;;;;;;;10.97;79.21;100919.00;5017215;28;20025;-63
2021/10/31 08:54:50;;;;;;;30.88;21.00;;;;;;;11.01;79.03;100916.97;5022670;28;20075;-64
2021/10/31 08:57:16;;;;;;;33.35;21.02;;;;;;;11.08;78.58;100920.84;5013348;28;20109;-63
2021/10/31 08:59:41;;;;;;;31.95;21.23;;;;;;;11.12;78.07;100912.44;5021701;28;20468;-63
2021/10/31 09:02:07;;;;;;;30.15;20.98;;;;;;;11.18;78.02;100916.44;5012990;28;20460;-63
2021/10/31 09:04:33;;;;;;;26.52;19.83;;;;;;;11.24;77.82;100910.59;5015625;28;20033;-64
2021/10/31 09:06:59;;;;;;;26.98;19.15;;;;;;;11.31;77.09;100909.09;5018650;28;20029;-64
2021/10/31 09:09:24;;;;;;;25.45;18.55;;;;;;;11.25;76.54;100886.28;5011656;28;20091;-63
2021/10/31 09:11:50;;;;;;;30.48;19.90;;;;;;;11.43;76.79;100911.66;5016373;28;20037;-64
2021/10/31 09:14:16;;;;;;;28.88;19.08;;;;;;;11.52;76.18;100910.03;5025357;28;20382;-63
2021/10/31 09:16:42;;;;;;;31.70;20.40;;;;;;;11.61;76.00;100913.81;5019252;28;20118;-64
2021/10/31 09:19:08;;;;;;;26.73;19.13;;;;;;;11.68;74.46;100904.28;5013915;28;22372;-70
2021/10/31 09:21:33;;;;;;;29.63;18.90;;;;;;;11.69;73.84;100882.66;5016462;28;20129;-69
2021/10/31 09:23:59;;;;;;;24.55;17.65;;;;;;;11.85;73.65;100901.03;5016209;28;20604;-70
2021/10/31 09:26:24;;;;;;;26.50;18.52;;;;;;;11.96;72.38;100876.81;5019080;28;20021;-70
2021/10/31 09:28:50;;;;;;;26.75;18.13;;;;;;;12.13;71.78;100887.84;5019008;28;20029;-69
2021/10/31 09:31:15;;;;;;;28.48;19.23;;;;;;;12.29;69.91;100879.31;5023067;28;20399;-70
2021/10/31 09:33:41;;;;;;;23.35;16.45;;;;;;;12.40;70.32;100863.06;5022965;28;20051;-69
2021/10/31 09:36:07;;;;;;;23.77;15.70;;;;;;;12.66;70.24;100861.66;5018185;28;20037;-69
2021/10/31 09:38:33;;;;;;;21.90;15.88;;;;;;;12.98;71.77;100856.97;5018844;28;20411;-70
2021/10/31 09:41:00;;;;;;;18.65;14.07;;;;;;;13.48;72.22;100856.00;5016426;28;20018;-69
2021/10/31 09:43:29;;;;;;;22.80;15.93;;;;;;;13.95;66.47;100855.13;5020091;28;20029;-70
2021/10/31 09:46:06;;;;;;;22.48;15.75;;;;;;;14.66;64.80;100857.28;5016268;28;20033;-70
2021/10/31 09:48:32;;;;;;;20.90;13.23;;;;;;;15.21;61.02;100842.81;5015331;28;20381;-70
2021/10/31 09:51:00;;;;;;;19.10;13.27;;;;;;;15.58;58.56;100826.53;5014299;28;20041;-70
2021/10/31 09:53:28;;;;;;;21.30;13.73;;;;;;;15.71;57.01;100818.88;5021016;28;20036;-70
2021/10/31 09:55:55;;;;;;;17.75;12.38;;;;;;;15.73;56.58;100823.09;5015519;28;20029;-70
2021/10/31 09:58:26;;;;;;;20.73;13.68;;;;;;;15.68;56.63;100817.31;5016983;28;20025;-70
2021/10/31 10:00:55;;;;;;;20.30;13.75;;;;;;;15.56;56.99;100815.00;5016948;28;20870;-69
2021/10/31 10:03:25;;;;;;;21.92;15.10;;;;;;;15.49;57.29;100822.88;5027085;28;20018;-70
2021/10/31 10:06:10;;;;;;;20.50;15.18;;;;;;;15.38;57.21;100812.28;5018264;28;20025;-69
2021/10/31 10:08:36;;;;;;;22.25;15.73;;;;;;;15.25;57.85;100810.94;5017017;28;20041;-70
2021/10/31 10:11:01;;;;;;;26.20;15.18;;;;;;;15.16;57.90;100801.03;5021894;28;20384;-69
2021/10/31 10:13:29;;;;;;;26.17;15.73;;;;;;;15.13;58.14;100812.97;5016962;28;20811;-70
2021/10/31 10:16:29;;;;;;;26.48;14.93;;;;;;;15.08;58.50;100811.72;5022888;28;20488;-70
2021/10/31 10:18:56;;;;;;;22.70;14.38;;;;;;;15.03;58.03;100803.25;5011234;28;20029;-69
2021/10/31 10:21:28;;;;;;;26.10;15.63;;;;;;;15.02;58.34;100801.53;5016943;28;20033;-68
2021/10/31 10:24:11;;;;;;;27.90;15.68;;;;;;;14.99;57.86;100782.97;5015070;28;20485;-69
2021/10/31 10:26:42;;;;;;;22.00;14.35;;;;;;;15.00;58.40;100792.75;5014771;28;20029;-70
2021/10/31 10:29:28;;;;;;;23.25;15.48;;;;;;;14.99;58.31;100793.75;5016527;28;20065;-70
2021/10/31 10:31:56;;;;;;;21.70;15.63;;;;;;;14.97;58.65;100791.22;5022197;28;20021;-69
2021/10/31 10:34:44;;;;;;;22.10;16.30;;;;;;;14.95;58.35;100777.00;5018365;28;20457;-70
2021/10/31 10:37:34;;;;;;;26.95;16.60;;;;;;;14.92;58.62;100777.28;5021351;28;20446;-70
2021/10/31 10:40:06;;;;;;;23.75;16.17;;;;;;;14.91;58.05;100778.31;5013242;28;20061;-70
2021/10/31 10:42:45;;;;;;;22.55;15.60;;;;;;;14.89;58.15;100769.50;5014017;28;20065;-70
2021/10/31 10:45:14;;;;;;;24.55;16.45;;;;;;;14.88;58.21;100767.78;5016133;28;20115;-70
2021/10/31 10:47:56;;;;;;;23.67;16.88;;;;;;;14.85;58.39;100760.00;5019511;28;20033;-70
2021/10/31 10:50:27;;;;;;;24.27;16.33;;;;;;;14.80;58.30;100747.94;5021003;28;20403;-70
2021/10/31 10:52:54;;;;;;;23.10;15.32;;;;;;;14.86;58.22;100748.19;5021486;28;20033;-70
2021/10/31 10:55:21;;;;;;;22.38;15.52;;;;;;;14.84;58.31;100742.09;5025230;28;20057;-70
2021/10/31 10:57:48;;;;;;;22.48;15.30;;;;;;;14.87;58.17;100749.88;5018570;28;20033;-70
2021/10/31 11:00:19;;;;;;;23.58;15.25;;;;;;;14.87;57.73;100740.94;5039822;28;20084;-69
2021/10/31 11:03:08;;;;;;;22.30;13.98;;;;;;;14.87;57.55;100735.53;5019799;28;20021;-69
2021/10/31 11:05:34;;;;;;;19.65;13.40;;;;;;;14.86;57.09;100726.56;5024417;28;20107;-69
2021/10/31 11:08:00;;;;;;;17.63;12.75;;;;;;;14.82;56.11;100722.50;5017763;28;20101;-69
2021/10/31 11:10:28;;;;;;;13.27;10.30;;;;;;;14.88;56.18;100724.59;5017208;28;20494;-69
2021/10/31 11:12:56;;;;;;;14.48;10.48;;;;;;;14.89;55.56;100712.78;5012761;28;20117;-69
2021/10/31 11:15:25;;;;;;;15.98;10.73;;;;;;;14.92;55.39;100715.16;5017906;28;20176;-68
2021/10/31 11:17:53;;;;;;;15.85;10.25;;;;;;;14.96;55.12;100721.13;5023594;28;20049;-70
2021/10/31 11:20:21;;;;;;;12.48;9.80;;;;;;;15.03;54.43;100703.28;5024710;28;20044;-70